PWSweather.com
Personal Weather Stations
Station Observations
ISYDDANM23
Felsted, AabenraaDK 6200

FelstedAabenraaDK 6200

Lat: 54.977066, Lon: 9.507192

Elevation: 135

Station Type: Davis Vantage Pro 2 Plus 24H

http://www.valkaer.dk

High Low Average
Temperature 58.1°F14.5°F 48.9°F9.4°F 54.6°F12.6°F
Dew Point 55.1°F12.8°F 47.0°F8.3°F 52.5°F11.4°F
Winds 10.4 mph -16.7 mph - Calm Calm 2.5 mph 4.0 mph
Wind Gusts 12.7 mph20.4 mph -- 3.7 mph6.0 mph
Humidity 95% 87% 93%
Pressure 29.75 in1007.50 in 29.68 in1005.10 in -
Precipitation 4.05 in102.90 in - -
Hour Temp Dew Point Humidity Winds Wind Gusts Pressure Precip Precip Rate Daily Precip Total
12:00 AM 54.7°F12.6°C 53.0°F11.7°C 94% 1.2 mph SE1.9 kmh SE 1.2 mph1.9 kmh 29.70 in1005.8 mb - 0.00 in0.0 mm 0.00 in0.0 mm
12:10 AM 55.2°F12.9°C 53.5°F11.9°C 94% Calm Calm 1.2 mph1.9 kmh 29.69 in1005.4 mb - 0.00 in0.0 mm 0.00 in0.0 mm
12:15 AM 55.2°F12.9°C 53.5°F11.9°C 94% Calm Calm 1.2 mph1.9 kmh 29.69 in1005.4 mb - 0.00 in0.0 mm 0.00 in0.0 mm
12:20 AM 54.8°F12.7°C 53.1°F11.7°C 94% 2.3 mph SE3.7 kmh SE 3.5 mph5.6 kmh 29.70 in1005.8 mb - 0.00 in0.0 mm 0.00 in0.0 mm
12:25 AM 54.7°F12.6°C 53.0°F11.7°C 94% 2.3 mph SE3.7 kmh SE 2.3 mph3.7 kmh 29.70 in1005.8 mb - 0.00 in0.0 mm 0.00 in0.0 mm
12:30 AM 54.7°F12.6°C 53.0°F11.7°C 94% 1.2 mph SE1.9 kmh SE 1.2 mph1.9 kmh 29.70 in1005.8 mb - 0.00 in0.0 mm 0.00 in0.0 mm
12:35 AM 54.8°F12.7°C 53.1°F11.7°C 94% Calm Calm -- 29.70 in1005.8 mb - 0.00 in0.0 mm 0.00 in0.0 mm
12:40 AM 54.7°F12.6°C 53.0°F11.7°C 94% Calm Calm -- 29.70 in1005.8 mb - 0.00 in0.0 mm 0.00 in0.0 mm
12:45 AM 54.8°F12.7°C 53.1°F11.7°C 94% Calm Calm -- 29.70 in1005.8 mb - 0.00 in0.0 mm 0.00 in0.0 mm
12:50 AM 54.8°F12.7°C 53.1°F11.7°C 94% Calm Calm -- 29.70 in1005.8 mb - 0.00 in0.0 mm 0.00 in0.0 mm
12:55 AM 54.6°F12.6°C 52.9°F11.6°C 94% Calm Calm -- 29.70 in1005.8 mb - 0.00 in0.0 mm 0.00 in0.0 mm
01:00 AM 54.5°F12.5°C 52.8°F11.6°C 94% Calm Calm -- 29.70 in1005.8 mb - 0.00 in0.0 mm 0.00 in0.0 mm
01:10 AM 54.8°F12.7°C 53.2°F11.8°C 94% Calm Calm -- 29.71 in1006.1 mb - 0.00 in0.0 mm 0.00 in0.0 mm
01:15 AM 55.1°F12.8°C 53.4°F11.9°C 94% 2.3 mph S3.7 kmh S 4.6 mph7.4 kmh 29.72 in1006.4 mb - 0.00 in0.0 mm 0.00 in0.0 mm
01:20 AM 55.5°F13.1°C 53.8°F12.1°C 94% 1.2 mph WSW1.9 kmh WSW 2.3 mph3.7 kmh 29.71 in1006.1 mb - 0.00 in0.0 mm 0.00 in0.0 mm
01:25 AM 55.7°F13.2°C 54.0°F12.2°C 94% 2.3 mph SSW3.7 kmh SSW 3.5 mph5.6 kmh 29.71 in1006.1 mb - 0.00 in0.0 mm 0.00 in0.0 mm
01:30 AM 55.7°F13.2°C 54.0°F12.2°C 94% 1.2 mph W1.9 kmh W 2.3 mph3.7 kmh 29.71 in1006.1 mb - 0.00 in0.0 mm 0.00 in0.0 mm
01:35 AM 55.7°F13.2°C 54.0°F12.2°C 94% 1.2 mph SW1.9 kmh SW 2.3 mph3.7 kmh 29.70 in1005.8 mb - 0.00 in0.0 mm 0.00 in0.0 mm
01:40 AM 55.7°F13.2°C 54.0°F12.2°C 94% Calm Calm -- 29.70 in1005.8 mb - 0.00 in0.0 mm 0.00 in0.0 mm
01:45 AM 55.9°F13.3°C 54.2°F12.3°C 94% 2.3 mph W3.7 kmh W 3.5 mph5.6 kmh 29.70 in1005.8 mb - 0.00 in0.0 mm 0.00 in0.0 mm
01:50 AM 56.0°F13.3°C 54.3°F12.4°C 94% 1.2 mph WSW1.9 kmh WSW 2.3 mph3.7 kmh 29.71 in1006.1 mb - 0.00 in0.0 mm 0.00 in0.0 mm
01:55 AM 56.0°F13.3°C 54.3°F12.4°C 94% 4.6 mph SW7.4 kmh SW 3.5 mph5.6 kmh 29.71 in1006.1 mb - 0.00 in0.0 mm 0.00 in0.0 mm
02:00 AM 56.1°F13.4°C 54.4°F12.4°C 94% 3.5 mph WSW5.6 kmh WSW 3.5 mph5.6 kmh 29.71 in1006.1 mb - 0.00 in0.0 mm 0.00 in0.0 mm
02:10 AM 56.0°F13.3°C 54.3°F12.4°C 94% 2.3 mph NW3.7 kmh NW 3.5 mph5.6 kmh 29.70 in1005.8 mb - 0.00 in0.0 mm 0.00 in0.0 mm
02:15 AM 55.9°F13.3°C 54.2°F12.3°C 94% 2.3 mph NW3.7 kmh NW 2.3 mph3.7 kmh 29.70 in1005.8 mb - 0.00 in0.0 mm 0.00 in0.0 mm
02:20 AM 55.9°F13.3°C 54.2°F12.3°C 94% 1.2 mph NW1.9 kmh NW 2.3 mph3.7 kmh 29.70 in1005.8 mb - 0.00 in0.0 mm 0.00 in0.0 mm
02:25 AM 55.8°F13.2°C 54.1°F12.3°C 94% 2.3 mph W3.7 kmh W 3.5 mph5.6 kmh 29.70 in1005.8 mb - 0.00 in0.0 mm 0.00 in0.0 mm
02:30 AM 55.7°F13.2°C 54.0°F12.2°C 94% 1.2 mph W1.9 kmh W 3.5 mph5.6 kmh 29.70 in1005.8 mb - 0.00 in0.0 mm 0.00 in0.0 mm
02:35 AM 55.7°F13.2°C 54.0°F12.2°C 94% 1.2 mph WNW1.9 kmh WNW 2.3 mph3.7 kmh 29.70 in1005.8 mb - 0.00 in0.0 mm 0.00 in0.0 mm
02:40 AM 55.7°F13.2°C 54.0°F12.2°C 94% 1.2 mph WNW1.9 kmh WNW 1.2 mph1.9 kmh 29.69 in1005.4 mb - 0.00 in0.0 mm 0.00 in0.0 mm
02:45 AM 55.7°F13.2°C 54.0°F12.2°C 94% 1.2 mph WNW1.9 kmh WNW 2.3 mph3.7 kmh 29.69 in1005.4 mb - 0.00 in0.0 mm 0.00 in0.0 mm
02:50 AM 55.7°F13.2°C 54.0°F12.2°C 94% Calm Calm 1.2 mph1.9 kmh 29.69 in1005.4 mb - 0.00 in0.0 mm 0.00 in0.0 mm
02:55 AM 55.6°F13.1°C 53.9°F12.2°C 94% 1.2 mph NW1.9 kmh NW 2.3 mph3.7 kmh 29.68 in1005.1 mb - 0.00 in0.0 mm 0.00 in0.0 mm
03:00 AM 55.6°F13.1°C 53.9°F12.2°C 94% 1.2 mph NW1.9 kmh NW 2.3 mph3.7 kmh 29.68 in1005.1 mb - 0.00 in0.0 mm 0.00 in0.0 mm
03:10 AM 55.5°F13.1°C 53.8°F12.1°C 94% 1.2 mph NW1.9 kmh NW 2.3 mph3.7 kmh 29.69 in1005.4 mb - 0.00 in0.0 mm 0.00 in0.0 mm
03:15 AM 55.3°F12.9°C 53.6°F12.0°C 94% 2.3 mph SW3.7 kmh SW 3.5 mph5.6 kmh 29.70 in1005.8 mb - 0.00 in0.0 mm 0.00 in0.0 mm
03:20 AM 55.5°F13.1°C 53.8°F12.1°C 94% Calm Calm 2.3 mph3.7 kmh 29.70 in1005.8 mb - 0.01 in0.3 mm 0.01 in0.3 mm
03:25 AM 55.5°F13.1°C 53.8°F12.1°C 94% 2.3 mph SW3.7 kmh SW 3.5 mph5.6 kmh 29.70 in1005.8 mb - 0.02 in0.5 mm 0.02 in0.5 mm
03:30 AM 55.4°F13.0°C 53.7°F12.1°C 94% Calm Calm 1.2 mph1.9 kmh 29.70 in1005.8 mb - 0.03 in0.8 mm 0.03 in0.8 mm
03:35 AM 55.4°F13.0°C 53.7°F12.1°C 94% 1.2 mph SW1.9 kmh SW 2.3 mph3.7 kmh 29.69 in1005.4 mb - 0.03 in0.8 mm 0.03 in0.8 mm
03:40 AM 55.3°F12.9°C 53.6°F12.0°C 94% Calm Calm 1.2 mph1.9 kmh 29.69 in1005.4 mb - 0.04 in1.0 mm 0.04 in1.0 mm
03:45 AM 55.4°F13.0°C 53.7°F12.1°C 94% Calm Calm -- 29.69 in1005.4 mb - 0.04 in1.0 mm 0.04 in1.0 mm
03:50 AM 55.2°F12.9°C 53.5°F11.9°C 94% 1.2 mph SW1.9 kmh SW 2.3 mph3.7 kmh 29.69 in1005.4 mb - 0.04 in1.0 mm 0.04 in1.0 mm
03:55 AM 55.1°F12.8°C 53.4°F11.9°C 94% 1.2 mph SW1.9 kmh SW 2.3 mph3.7 kmh 29.69 in1005.4 mb - 0.04 in1.0 mm 0.04 in1.0 mm
04:00 AM 55.1°F12.8°C 53.4°F11.9°C 94% Calm Calm 1.2 mph1.9 kmh 29.69 in1005.4 mb - 0.05 in1.3 mm 0.05 in1.3 mm
04:10 AM 55.2°F12.9°C 53.5°F11.9°C 94% Calm Calm 1.2 mph1.9 kmh 29.69 in1005.4 mb - 0.05 in1.3 mm 0.05 in1.3 mm
04:15 AM 55.2°F12.9°C 53.5°F11.9°C 94% 1.2 mph SW1.9 kmh SW 2.3 mph3.7 kmh 29.68 in1005.1 mb - 0.05 in1.3 mm 0.05 in1.3 mm
04:20 AM 55.3°F12.9°C 53.6°F12.0°C 94% Calm Calm -- 29.68 in1005.1 mb - 0.04 in1.0 mm 0.05 in1.3 mm
04:25 AM 55.4°F13.0°C 53.7°F12.1°C 94% Calm Calm -- 29.68 in1005.1 mb - 0.03 in0.8 mm 0.05 in1.3 mm
04:30 AM 55.3°F12.9°C 53.6°F12.0°C 94% 1.2 mph SW1.9 kmh SW 3.5 mph5.6 kmh 29.69 in1005.4 mb - 0.02 in0.5 mm 0.05 in1.3 mm
04:35 AM 55.3°F12.9°C 53.6°F12.0°C 94% 2.3 mph S3.7 kmh S 3.5 mph5.6 kmh 29.70 in1005.8 mb - 0.02 in0.5 mm 0.06 in1.5 mm
04:40 AM 55.3°F12.9°C 53.6°F12.0°C 94% 1.2 mph S1.9 kmh S 2.3 mph3.7 kmh 29.69 in1005.4 mb - 0.04 in1.0 mm 0.07 in1.8 mm
04:45 AM 55.3°F12.9°C 53.6°F12.0°C 94% 1.2 mph NNW1.9 kmh NNW 2.3 mph3.7 kmh 29.68 in1005.1 mb - 0.04 in1.0 mm 0.08 in2.0 mm
04:50 AM 55.3°F12.9°C 53.6°F12.0°C 94% 1.2 mph NNW1.9 kmh NNW 2.3 mph3.7 kmh 29.68 in1005.1 mb - 0.05 in1.3 mm 0.09 in2.3 mm
04:55 AM 55.2°F12.9°C 53.5°F11.9°C 94% 1.2 mph NNW1.9 kmh NNW 1.2 mph1.9 kmh 29.68 in1005.1 mb - 0.06 in1.5 mm 0.09 in2.3 mm
05:00 AM 55.2°F12.9°C 53.5°F11.9°C 94% Calm Calm -- 29.68 in1005.1 mb - 0.06 in1.5 mm 0.09 in2.3 mm
05:10 AM 55.0°F12.8°C 53.3°F11.8°C 94% Calm Calm 1.2 mph1.9 kmh 29.68 in1005.1 mb - 0.06 in1.5 mm 0.10 in2.5 mm
05:15 AM 55.0°F12.8°C 53.3°F11.8°C 94% 1.2 mph SW1.9 kmh SW 2.3 mph3.7 kmh 29.69 in1005.4 mb - 0.06 in1.5 mm 0.11 in2.8 mm
05:20 AM 55.1°F12.8°C 53.4°F11.9°C 94% 2.3 mph SSE3.7 kmh SSE 4.6 mph7.4 kmh 29.70 in1005.8 mb - 0.06 in1.5 mm 0.11 in2.8 mm
05:25 AM 55.2°F12.9°C 53.5°F11.9°C 94% 1.2 mph SSE1.9 kmh SSE 1.2 mph1.9 kmh 29.70 in1005.8 mb - 0.07 in1.8 mm 0.12 in3.0 mm
05:30 AM 55.3°F12.9°C 53.6°F12.0°C 94% Calm Calm -- 29.69 in1005.4 mb - 0.09 in2.3 mm 0.13 in3.3 mm
05:35 AM 55.3°F12.9°C 53.6°F12.0°C 94% Calm Calm -- 29.69 in1005.4 mb - 0.09 in2.3 mm 0.14 in3.6 mm
05:40 AM 55.3°F12.9°C 53.6°F12.0°C 94% Calm Calm -- 29.69 in1005.4 mb - 0.08 in2.0 mm 0.14 in3.6 mm
05:45 AM 55.3°F12.9°C 53.6°F12.0°C 94% Calm Calm -- 29.69 in1005.4 mb - 0.07 in1.8 mm 0.15 in3.8 mm
05:50 AM 55.3°F12.9°C 53.6°F12.0°C 94% Calm Calm 2.3 mph3.7 kmh 29.69 in1005.4 mb - 0.07 in1.8 mm 0.16 in4.1 mm
05:55 AM 55.2°F12.9°C 53.5°F11.9°C 94% 1.2 mph SSE1.9 kmh SSE 1.2 mph1.9 kmh 29.69 in1005.4 mb - 0.06 in1.5 mm 0.16 in4.1 mm
06:00 AM 55.1°F12.8°C 53.4°F11.9°C 94% Calm Calm -- 29.69 in1005.4 mb - 0.07 in1.8 mm 0.17 in4.3 mm
06:10 AM 55.1°F12.8°C 53.4°F11.9°C 94% 1.2 mph SSE1.9 kmh SSE 2.3 mph3.7 kmh 29.68 in1005.1 mb - 0.06 in1.5 mm 0.17 in4.3 mm
06:15 AM 55.1°F12.8°C 53.4°F11.9°C 94% 2.3 mph WSW3.7 kmh WSW 3.5 mph5.6 kmh 29.68 in1005.1 mb - 0.06 in1.5 mm 0.17 in4.3 mm
06:20 AM 55.2°F12.9°C 53.5°F11.9°C 94% 3.5 mph WSW5.6 kmh WSW 3.5 mph5.6 kmh 29.68 in1005.1 mb - 0.06 in1.5 mm 0.17 in4.3 mm
06:25 AM 55.2°F12.9°C 53.5°F11.9°C 94% 2.3 mph WSW3.7 kmh WSW 3.5 mph5.6 kmh 29.68 in1005.1 mb - 0.06 in1.5 mm 0.17 in4.3 mm
06:30 AM 55.2°F12.9°C 53.5°F11.9°C 94% 2.3 mph WSW3.7 kmh WSW 3.5 mph5.6 kmh 29.68 in1005.1 mb - 0.06 in1.5 mm 0.18 in4.6 mm
06:35 AM 55.2°F12.9°C 53.5°F11.9°C 94% 2.3 mph WSW3.7 kmh WSW 3.5 mph5.6 kmh 29.68 in1005.1 mb - 0.06 in1.5 mm 0.19 in4.8 mm
06:40 AM 55.3°F12.9°C 53.6°F12.0°C 94% 1.2 mph WSW1.9 kmh WSW 3.5 mph5.6 kmh 29.68 in1005.1 mb - 0.05 in1.3 mm 0.19 in4.8 mm
06:45 AM 55.3°F12.9°C 53.6°F12.0°C 94% 2.3 mph WSW3.7 kmh WSW 3.5 mph5.6 kmh 29.69 in1005.4 mb - 0.05 in1.3 mm 0.20 in5.1 mm
06:50 AM 55.3°F12.9°C 53.6°F12.0°C 94% 2.3 mph WSW3.7 kmh WSW 3.5 mph5.6 kmh 29.69 in1005.4 mb - 0.05 in1.3 mm 0.21 in5.3 mm
06:55 AM 55.4°F13.0°C 53.7°F12.1°C 94% 2.3 mph WSW3.7 kmh WSW 2.3 mph3.7 kmh 29.69 in1005.4 mb - 0.06 in1.5 mm 0.21 in5.3 mm
07:00 AM 55.4°F13.0°C 53.7°F12.1°C 94% Calm Calm 1.2 mph1.9 kmh 29.69 in1005.4 mb - 0.06 in1.5 mm 0.22 in5.6 mm
07:10 AM 55.3°F12.9°C 53.6°F12.0°C 94% Calm Calm 1.2 mph1.9 kmh 29.69 in1005.4 mb - 0.09 in2.3 mm 0.25 in6.4 mm
07:15 AM 55.3°F12.9°C 53.6°F12.0°C 94% Calm Calm -- 29.69 in1005.4 mb - 0.09 in2.3 mm 0.25 in6.4 mm
07:20 AM 55.3°F12.9°C 53.6°F12.0°C 94% Calm Calm -- 29.69 in1005.4 mb - 0.09 in2.3 mm 0.27 in6.9 mm
07:25 AM 55.3°F12.9°C 53.6°F12.0°C 94% Calm Calm -- 29.69 in1005.4 mb - 0.10 in2.5 mm 0.28 in7.1 mm
07:30 AM 55.3°F12.9°C 53.6°F12.0°C 94% Calm Calm 1.2 mph1.9 kmh 29.69 in1005.4 mb - 0.10 in2.5 mm 0.28 in7.1 mm
07:35 AM 55.3°F12.9°C 53.6°F12.0°C 94% Calm Calm 2.3 mph3.7 kmh 29.69 in1005.4 mb - 0.12 in3.0 mm 0.30 in7.6 mm
07:40 AM 55.4°F13.0°C 53.7°F12.1°C 94% 1.2 mph WSW1.9 kmh WSW 2.3 mph3.7 kmh 29.69 in1005.4 mb - 0.11 in2.8 mm 0.30 in7.6 mm
07:45 AM 55.4°F13.0°C 53.7°F12.1°C 94% Calm Calm -- 29.70 in1005.8 mb - 0.11 in2.8 mm 0.31 in7.9 mm
07:50 AM 55.5°F13.1°C 53.8°F12.1°C 94% 1.2 mph WSW1.9 kmh WSW 2.3 mph3.7 kmh 29.70 in1005.8 mb - 0.11 in2.8 mm 0.32 in8.1 mm
07:55 AM 55.5°F13.1°C 53.8°F12.1°C 94% Calm Calm 2.3 mph3.7 kmh 29.70 in1005.8 mb - 0.10 in2.5 mm 0.32 in8.1 mm
08:00 AM 55.5°F13.1°C 53.8°F12.1°C 94% Calm Calm 1.2 mph1.9 kmh 29.70 in1005.8 mb - 0.09 in2.3 mm 0.32 in8.1 mm
08:10 AM 55.6°F13.1°C 53.9°F12.2°C 94% Calm Calm -- 29.70 in1005.8 mb - 0.08 in2.0 mm 0.32 in8.1 mm
08:15 AM 55.6°F13.1°C 53.9°F12.2°C 94% Calm Calm -- 29.70 in1005.8 mb - 0.07 in1.8 mm 0.32 in8.1 mm
08:20 AM 55.7°F13.2°C 54.0°F12.2°C 94% Calm Calm -- 29.70 in1005.8 mb - 0.06 in1.5 mm 0.32 in8.1 mm
08:25 AM 55.7°F13.2°C 54.3°F12.4°C 95% Calm Calm -- 29.70 in1005.8 mb - 0.05 in1.3 mm 0.32 in8.1 mm
08:30 AM 55.7°F13.2°C 54.3°F12.4°C 95% Calm Calm -- 29.70 in1005.8 mb - 0.04 in1.0 mm 0.32 in8.1 mm
08:35 AM 55.7°F13.2°C 54.3°F12.4°C 95% Calm Calm -- 29.70 in1005.8 mb - 0.03 in0.8 mm 0.32 in8.1 mm
08:40 AM 55.6°F13.1°C 53.9°F12.2°C 94% Calm Calm 1.2 mph1.9 kmh 29.70 in1005.8 mb - 0.03 in0.8 mm 0.33 in8.4 mm
08:45 AM 55.6°F13.1°C 53.9°F12.2°C 94% Calm Calm -- 29.70 in1005.8 mb - 0.02 in0.5 mm 0.33 in8.4 mm
08:50 AM 55.7°F13.2°C 54.3°F12.4°C 95% 1.2 mph WSW1.9 kmh WSW 2.3 mph3.7 kmh 29.71 in1006.1 mb - 0.02 in0.5 mm 0.33 in8.4 mm
08:55 AM 55.7°F13.2°C 54.3°F12.4°C 95% 2.3 mph WSW3.7 kmh WSW 3.5 mph5.6 kmh 29.71 in1006.1 mb - 0.02 in0.5 mm 0.33 in8.4 mm
09:00 AM 55.7°F13.2°C 54.3°F12.4°C 95% 1.2 mph WSW1.9 kmh WSW 3.5 mph5.6 kmh 29.71 in1006.1 mb - 0.02 in0.5 mm 0.33 in8.4 mm
09:10 AM 55.8°F13.2°C 54.4°F12.4°C 95% Calm Calm 1.2 mph1.9 kmh 29.70 in1005.8 mb - 0.02 in0.5 mm 0.35 in8.9 mm
09:15 AM 55.8°F13.2°C 54.4°F12.4°C 95% Calm Calm 1.2 mph1.9 kmh 29.70 in1005.8 mb - 0.02 in0.5 mm 0.35 in8.9 mm
09:20 AM 55.8°F13.2°C 54.4°F12.4°C 95% 1.2 mph WSW1.9 kmh WSW 3.5 mph5.6 kmh 29.70 in1005.8 mb - 0.02 in0.5 mm 0.35 in8.9 mm
09:25 AM 55.7°F13.2°C 54.3°F12.4°C 95% 1.2 mph SE1.9 kmh SE 3.5 mph5.6 kmh 29.70 in1005.8 mb - 0.02 in0.5 mm 0.35 in8.9 mm
09:30 AM 55.6°F13.1°C 54.0°F12.2°C 94% 1.2 mph SE1.9 kmh SE 1.2 mph1.9 kmh 29.70 in1005.8 mb - 0.02 in0.5 mm 0.35 in8.9 mm
09:35 AM 55.6°F13.1°C 53.9°F12.2°C 94% Calm Calm -- 29.70 in1005.8 mb - 0.02 in0.5 mm 0.35 in8.9 mm
09:40 AM 55.7°F13.2°C 54.0°F12.2°C 94% Calm Calm 1.2 mph1.9 kmh 29.70 in1005.8 mb - 0.02 in0.5 mm 0.35 in8.9 mm
09:45 AM 55.8°F13.2°C 54.4°F12.4°C 95% 1.2 mph SE1.9 kmh SE 2.3 mph3.7 kmh 29.70 in1005.8 mb - 0.02 in0.5 mm 0.35 in8.9 mm
09:50 AM 56.0°F13.3°C 54.5°F12.5°C 95% 1.2 mph SSE1.9 kmh SSE 2.3 mph3.7 kmh 29.70 in1005.8 mb - 0.02 in0.5 mm 0.35 in8.9 mm
09:55 AM 55.9°F13.3°C 54.2°F12.3°C 94% 2.3 mph SW3.7 kmh SW 2.3 mph3.7 kmh 29.70 in1005.8 mb - 0.02 in0.5 mm 0.35 in8.9 mm
10:00 AM 56.1°F13.4°C 54.4°F12.4°C 94% 1.2 mph SW1.9 kmh SW 2.3 mph3.7 kmh 29.70 in1005.8 mb - 0.02 in0.5 mm 0.35 in8.9 mm
10:10 AM 55.9°F13.3°C 54.2°F12.3°C 94% Calm Calm -- 29.70 in1005.8 mb - 0.00 in0.0 mm 0.35 in8.9 mm
10:15 AM 56.0°F13.3°C 54.3°F12.4°C 94% 2.3 mph SW3.7 kmh SW 3.5 mph5.6 kmh 29.70 in1005.8 mb - 0.00 in0.0 mm 0.35 in8.9 mm
10:20 AM 56.2°F13.4°C 54.5°F12.5°C 94% 1.2 mph SW1.9 kmh SW 2.3 mph3.7 kmh 29.70 in1005.8 mb - 0.00 in0.0 mm 0.35 in8.9 mm
10:25 AM 56.2°F13.4°C 54.5°F12.5°C 94% Calm Calm -- 29.70 in1005.8 mb - 0.00 in0.0 mm 0.35 in8.9 mm
10:30 AM 56.4°F13.6°C 54.7°F12.6°C 94% 1.2 mph SW1.9 kmh SW 2.3 mph3.7 kmh 29.71 in1006.1 mb - 0.00 in0.0 mm 0.35 in8.9 mm
10:35 AM 56.6°F13.7°C 54.9°F12.7°C 94% 2.3 mph SW3.7 kmh SW 3.5 mph5.6 kmh 29.71 in1006.1 mb - 0.00 in0.0 mm 0.35 in8.9 mm
10:40 AM 56.5°F13.6°C 54.8°F12.7°C 94% 2.3 mph SSW3.7 kmh SSW 3.5 mph5.6 kmh 29.71 in1006.1 mb - 0.00 in0.0 mm 0.35 in8.9 mm
10:45 AM 56.5°F13.6°C 54.8°F12.7°C 94% 1.2 mph SSW1.9 kmh SSW 3.5 mph5.6 kmh 29.71 in1006.1 mb - 0.00 in0.0 mm 0.35 in8.9 mm
10:50 AM 56.5°F13.6°C 54.8°F12.7°C 94% 2.3 mph SW3.7 kmh SW 3.5 mph5.6 kmh 29.71 in1006.1 mb - 0.00 in0.0 mm 0.35 in8.9 mm
10:55 AM 56.5°F13.6°C 54.8°F12.7°C 94% 3.5 mph SW5.6 kmh SW 3.5 mph5.6 kmh 29.71 in1006.1 mb - 0.00 in0.0 mm 0.35 in8.9 mm
11:00 AM 56.3°F13.5°C 54.6°F12.6°C 94% 2.3 mph SSW3.7 kmh SSW 3.5 mph5.6 kmh 29.71 in1006.1 mb - 0.00 in0.0 mm 0.35 in8.9 mm
11:10 AM 56.2°F13.4°C 54.5°F12.5°C 94% 1.2 mph SSW1.9 kmh SSW 3.5 mph5.6 kmh 29.71 in1006.1 mb - 0.00 in0.0 mm 0.35 in8.9 mm
11:15 AM 56.2°F13.4°C 54.5°F12.5°C 94% 2.3 mph SW3.7 kmh SW 3.5 mph5.6 kmh 29.71 in1006.1 mb - 0.00 in0.0 mm 0.35 in8.9 mm
11:20 AM 56.2°F13.4°C 54.5°F12.5°C 94% 2.3 mph SW3.7 kmh SW 3.5 mph5.6 kmh 29.71 in1006.1 mb - 0.00 in0.0 mm 0.35 in8.9 mm
11:25 AM 56.4°F13.6°C 54.7°F12.6°C 94% 2.3 mph SW3.7 kmh SW 3.5 mph5.6 kmh 29.70 in1005.8 mb - 0.00 in0.0 mm 0.35 in8.9 mm
11:30 AM 56.4°F13.6°C 54.7°F12.6°C 94% 2.3 mph SW3.7 kmh SW 3.5 mph5.6 kmh 29.70 in1005.8 mb - 0.00 in0.0 mm 0.35 in8.9 mm
11:35 AM 56.6°F13.7°C 54.9°F12.7°C 94% 3.5 mph WSW5.6 kmh WSW 4.6 mph7.4 kmh 29.71 in1006.1 mb - 0.00 in0.0 mm 0.35 in8.9 mm
11:40 AM 56.5°F13.6°C 54.8°F12.7°C 94% 6.9 mph WSW11.1 kmh WSW 8.1 mph13.0 kmh 29.71 in1006.1 mb - 0.00 in0.0 mm 0.35 in8.9 mm
11:45 AM 56.4°F13.6°C 54.7°F12.6°C 94% 6.9 mph WSW11.1 kmh WSW 10.4 mph16.7 kmh 29.71 in1006.1 mb - 0.01 in0.3 mm 0.35 in8.9 mm
11:50 AM 56.4°F13.6°C 54.7°F12.6°C 94% 5.8 mph W9.3 kmh W 5.8 mph9.3 kmh 29.71 in1006.1 mb - 0.01 in0.3 mm 0.35 in8.9 mm
11:55 AM 56.5°F13.6°C 54.8°F12.7°C 94% 6.9 mph W11.1 kmh W 8.1 mph13.0 kmh 29.71 in1006.1 mb - 0.01 in0.3 mm 0.35 in8.9 mm
12:00 PM 56.5°F13.6°C 54.8°F12.7°C 94% 5.8 mph W9.3 kmh W 8.1 mph13.0 kmh 29.71 in1006.1 mb - 0.01 in0.3 mm 0.35 in8.9 mm
12:10 PM 56.8°F13.8°C 55.1°F12.8°C 94% 4.6 mph W7.4 kmh W 9.2 mph14.8 kmh 29.71 in1006.1 mb - 0.01 in0.3 mm 0.35 in8.9 mm
12:15 PM 56.7°F13.7°C 54.7°F12.6°C 93% 6.9 mph W11.1 kmh W 9.2 mph14.8 kmh 29.71 in1006.1 mb - 0.01 in0.3 mm 0.35 in8.9 mm
12:20 PM 56.7°F13.7°C 54.7°F12.6°C 93% 6.9 mph W11.1 kmh W 9.2 mph14.8 kmh 29.71 in1006.1 mb - 0.01 in0.3 mm 0.35 in8.9 mm
12:25 PM 56.3°F13.5°C 54.4°F12.4°C 93% 10.4 mph WNW16.7 kmh WNW 12.7 mph20.4 kmh 29.71 in1006.1 mb - 0.01 in0.3 mm 0.35 in8.9 mm
12:30 PM 55.1°F12.8°C 52.8°F11.6°C 92% 10.4 mph NW16.7 kmh NW 11.5 mph18.5 kmh 29.71 in1006.1 mb - 0.01 in0.3 mm 0.35 in8.9 mm
12:35 PM 54.5°F12.5°C 52.2°F11.2°C 92% 5.8 mph NW9.3 kmh NW 9.2 mph14.8 kmh 29.72 in1006.4 mb - 0.01 in0.3 mm 0.35 in8.9 mm
12:40 PM 54.3°F12.4°C 52.0°F11.1°C 92% 5.8 mph WNW9.3 kmh WNW 9.2 mph14.8 kmh 29.71 in1006.1 mb - 0.01 in0.3 mm 0.35 in8.9 mm
12:45 PM 54.3°F12.4°C 52.0°F11.1°C 92% 3.5 mph NW5.6 kmh NW 4.6 mph7.4 kmh 29.72 in1006.4 mb - 0.00 in0.0 mm 0.35 in8.9 mm
12:50 PM 54.4°F12.4°C 52.1°F11.2°C 92% 3.5 mph WNW5.6 kmh WNW 5.8 mph9.3 kmh 29.72 in1006.4 mb - 0.00 in0.0 mm 0.35 in8.9 mm
12:55 PM 54.6°F12.6°C 52.3°F11.3°C 92% 3.5 mph WNW5.6 kmh WNW 3.5 mph5.6 kmh 29.72 in1006.4 mb - 0.00 in0.0 mm 0.35 in8.9 mm
01:00 PM 54.7°F12.6°C 52.4°F11.3°C 92% 3.5 mph W5.6 kmh W 3.5 mph5.6 kmh 29.72 in1006.4 mb - 0.00 in0.0 mm 0.35 in8.9 mm
01:10 PM 55.0°F12.8°C 52.7°F11.5°C 92% 3.5 mph W5.6 kmh W 5.8 mph9.3 kmh 29.71 in1006.1 mb - 0.00 in0.0 mm 0.35 in8.9 mm
01:15 PM 54.9°F12.7°C 52.6°F11.4°C 92% 3.5 mph W5.6 kmh W 3.5 mph5.6 kmh 29.71 in1006.1 mb - 0.00 in0.0 mm 0.35 in8.9 mm
01:20 PM 55.0°F12.8°C 52.7°F11.5°C 92% 3.5 mph W5.6 kmh W 3.5 mph5.6 kmh 29.71 in1006.1 mb - 0.00 in0.0 mm 0.35 in8.9 mm
01:25 PM 55.2°F12.9°C 52.6°F11.4°C 91% 3.5 mph W5.6 kmh W 5.8 mph9.3 kmh 29.71 in1006.1 mb - 0.00 in0.0 mm 0.35 in8.9 mm
01:30 PM 55.3°F12.9°C 52.7°F11.5°C 91% 4.6 mph W7.4 kmh W 8.1 mph13.0 kmh 29.72 in1006.4 mb - 0.00 in0.0 mm 0.35 in8.9 mm
01:35 PM 55.3°F12.9°C 52.8°F11.6°C 91% 3.5 mph WSW5.6 kmh WSW 3.5 mph5.6 kmh 29.71 in1006.1 mb - 0.00 in0.0 mm 0.35 in8.9 mm
01:40 PM 55.4°F13.0°C 52.8°F11.6°C 91% 4.6 mph W7.4 kmh W 5.8 mph9.3 kmh 29.72 in1006.4 mb - 0.00 in0.0 mm 0.35 in8.9 mm
01:45 PM 55.3°F12.9°C 52.7°F11.5°C 91% 3.5 mph WSW5.6 kmh WSW 5.8 mph9.3 kmh 29.72 in1006.4 mb - 0.00 in0.0 mm 0.35 in8.9 mm
01:50 PM 55.5°F13.1°C 52.9°F11.6°C 91% 5.8 mph WSW9.3 kmh WSW 6.9 mph11.1 kmh 29.72 in1006.4 mb - 0.00 in0.0 mm 0.35 in8.9 mm
01:55 PM 55.5°F13.1°C 52.9°F11.6°C 91% 4.6 mph WSW7.4 kmh WSW 5.8 mph9.3 kmh 29.72 in1006.4 mb - 0.00 in0.0 mm 0.35 in8.9 mm
02:00 PM 55.5°F13.1°C 52.9°F11.6°C 91% 3.5 mph WSW5.6 kmh WSW 4.6 mph7.4 kmh 29.72 in1006.4 mb - 0.00 in0.0 mm 0.35 in8.9 mm
02:10 PM 55.7°F13.2°C 53.4°F11.9°C 92% 5.8 mph WSW9.3 kmh WSW 6.9 mph11.1 kmh 29.71 in1006.1 mb - 0.00 in0.0 mm 0.35 in8.9 mm
02:15 PM 55.8°F13.2°C 53.5°F11.9°C 92% 6.9 mph WSW11.1 kmh WSW 8.1 mph13.0 kmh 29.71 in1006.1 mb - 0.00 in0.0 mm 0.35 in8.9 mm
02:20 PM 56.0°F13.3°C 53.7°F12.1°C 92% 5.8 mph WSW9.3 kmh WSW 9.2 mph14.8 kmh 29.71 in1006.1 mb - 0.00 in0.0 mm 0.35 in8.9 mm
02:25 PM 56.3°F13.5°C 54.0°F12.2°C 92% 6.9 mph WSW11.1 kmh WSW 8.1 mph13.0 kmh 29.71 in1006.1 mb - 0.00 in0.0 mm 0.35 in8.9 mm
02:30 PM 56.4°F13.6°C 54.1°F12.3°C 92% 4.6 mph WSW7.4 kmh WSW 10.4 mph16.7 kmh 29.71 in1006.1 mb - 0.00 in0.0 mm 0.35 in8.9 mm
02:35 PM 56.5°F13.6°C 54.2°F12.3°C 92% 5.8 mph WSW9.3 kmh WSW 8.1 mph13.0 kmh 29.71 in1006.1 mb - 0.00 in0.0 mm 0.35 in8.9 mm
02:40 PM 56.6°F13.7°C 54.3°F12.4°C 92% 4.6 mph WSW7.4 kmh WSW 6.9 mph11.1 kmh 29.72 in1006.4 mb - 0.00 in0.0 mm 0.35 in8.9 mm
02:45 PM 56.9°F13.8°C 54.6°F12.6°C 92% 3.5 mph WSW5.6 kmh WSW 6.9 mph11.1 kmh 29.72 in1006.4 mb - 0.00 in0.0 mm 0.35 in8.9 mm
02:50 PM 57.0°F13.9°C 54.4°F12.4°C 91% 4.6 mph WSW7.4 kmh WSW 6.9 mph11.1 kmh 29.72 in1006.4 mb - 0.00 in0.0 mm 0.35 in8.9 mm
02:55 PM 57.2°F14.0°C 54.6°F12.6°C 91% 6.9 mph WSW11.1 kmh WSW 8.1 mph13.0 kmh 29.72 in1006.4 mb - 0.00 in0.0 mm 0.35 in8.9 mm
03:00 PM 57.5°F14.2°C 54.9°F12.7°C 91% 8.1 mph WSW13.0 kmh WSW 8.1 mph13.0 kmh 29.72 in1006.4 mb - 0.00 in0.0 mm 0.35 in8.9 mm
03:10 PM 57.9°F14.4°C 55.0°F12.8°C 90% 8.1 mph WSW13.0 kmh WSW 11.5 mph18.5 kmh 29.72 in1006.4 mb - 0.00 in0.0 mm 0.35 in8.9 mm
03:15 PM 57.9°F14.4°C 54.6°F12.6°C 89% 6.9 mph WSW11.1 kmh WSW 9.2 mph14.8 kmh 29.72 in1006.4 mb - 0.00 in0.0 mm 0.35 in8.9 mm
03:20 PM 58.1°F14.5°C 54.6°F12.6°C 88% 9.2 mph SW14.8 kmh SW 11.5 mph18.5 kmh 29.72 in1006.4 mb - 0.00 in0.0 mm 0.35 in8.9 mm
03:25 PM 57.9°F14.4°C 54.3°F12.4°C 88% 6.9 mph WSW11.1 kmh WSW 10.4 mph16.7 kmh 29.72 in1006.4 mb - 0.00 in0.0 mm 0.35 in8.9 mm
03:30 PM 57.7°F14.3°C 54.2°F12.3°C 88% 5.8 mph WSW9.3 kmh WSW 6.9 mph11.1 kmh 29.72 in1006.4 mb - 0.00 in0.0 mm 0.35 in8.9 mm
03:35 PM 57.7°F14.3°C 54.2°F12.3°C 88% 8.1 mph WSW13.0 kmh WSW 10.4 mph16.7 kmh 29.72 in1006.4 mb - 0.00 in0.0 mm 0.35 in8.9 mm
03:40 PM 57.5°F14.2°C 54.0°F12.2°C 88% 4.6 mph WSW7.4 kmh WSW 5.8 mph9.3 kmh 29.72 in1006.4 mb - 0.00 in0.0 mm 0.35 in8.9 mm
03:45 PM 57.5°F14.2°C 54.0°F12.2°C 88% 4.6 mph SW7.4 kmh SW 6.9 mph11.1 kmh 29.72 in1006.4 mb - 0.00 in0.0 mm 0.35 in8.9 mm
03:50 PM 57.5°F14.2°C 54.3°F12.4°C 89% 4.6 mph WSW7.4 kmh WSW 6.9 mph11.1 kmh 29.72 in1006.4 mb - 0.00 in0.0 mm 0.35 in8.9 mm
03:55 PM 57.7°F14.3°C 54.4°F12.4°C 89% 3.5 mph WSW5.6 kmh WSW 4.6 mph7.4 kmh 29.72 in1006.4 mb - 0.00 in0.0 mm 0.35 in8.9 mm
04:00 PM 57.8°F14.3°C 54.6°F12.6°C 89% 3.5 mph WSW5.6 kmh WSW 3.5 mph5.6 kmh 29.72 in1006.4 mb - 0.00 in0.0 mm 0.35 in8.9 mm
04:10 PM 57.8°F14.3°C 54.2°F12.3°C 88% 4.6 mph WSW7.4 kmh WSW 8.1 mph13.0 kmh 29.72 in1006.4 mb - 0.00 in0.0 mm 0.35 in8.9 mm
04:15 PM 57.7°F14.3°C 54.2°F12.3°C 88% 4.6 mph WSW7.4 kmh WSW 5.8 mph9.3 kmh 29.72 in1006.4 mb - 0.00 in0.0 mm 0.35 in8.9 mm
04:20 PM 57.7°F14.3°C 54.2°F12.3°C 88% 3.5 mph WSW5.6 kmh WSW 3.5 mph5.6 kmh 29.72 in1006.4 mb - 0.00 in0.0 mm 0.35 in8.9 mm
04:25 PM 57.6°F14.2°C 54.4°F12.4°C 89% 3.5 mph WSW5.6 kmh WSW 4.6 mph7.4 kmh 29.72 in1006.4 mb - 0.00 in0.0 mm 0.35 in8.9 mm
04:30 PM 57.6°F14.2°C 54.4°F12.4°C 89% 4.6 mph SW7.4 kmh SW 8.1 mph13.0 kmh 29.72 in1006.4 mb - 0.00 in0.0 mm 0.35 in8.9 mm
04:35 PM 57.6°F14.2°C 54.1°F12.3°C 88% 3.5 mph SW5.6 kmh SW 5.8 mph9.3 kmh 29.72 in1006.4 mb - 0.00 in0.0 mm 0.35 in8.9 mm
04:40 PM 57.7°F14.3°C 54.2°F12.3°C 88% 4.6 mph WSW7.4 kmh WSW 11.5 mph18.5 kmh 29.72 in1006.4 mb - 0.00 in0.0 mm 0.35 in8.9 mm
04:45 PM 57.7°F14.3°C 53.9°F12.2°C 87% 5.8 mph SW9.3 kmh SW 5.8 mph9.3 kmh 29.72 in1006.4 mb - 0.00 in0.0 mm 0.35 in8.9 mm
04:50 PM 57.6°F14.2°C 54.1°F12.3°C 88% 3.5 mph WSW5.6 kmh WSW 5.8 mph9.3 kmh 29.72 in1006.4 mb - 0.00 in0.0 mm 0.35 in8.9 mm
04:55 PM 57.5°F14.2°C 54.0°F12.2°C 88% 4.6 mph WSW7.4 kmh WSW 5.8 mph9.3 kmh 29.72 in1006.4 mb - 0.00 in0.0 mm 0.35 in8.9 mm
05:00 PM 57.2°F14.0°C 53.7°F12.1°C 88% 3.5 mph SW5.6 kmh SW 3.5 mph5.6 kmh 29.72 in1006.4 mb - 0.00 in0.0 mm 0.35 in8.9 mm
05:10 PM 56.4°F13.6°C 53.2°F11.8°C 89% 6.9 mph WSW11.1 kmh WSW 9.2 mph14.8 kmh 29.72 in1006.4 mb - 0.00 in0.0 mm 0.35 in8.9 mm
05:15 PM 56.2°F13.4°C 53.0°F11.7°C 89% 6.9 mph SW11.1 kmh SW 9.2 mph14.8 kmh 29.72 in1006.4 mb - 0.00 in0.0 mm 0.35 in8.9 mm
05:20 PM 56.0°F13.3°C 52.8°F11.6°C 89% 5.8 mph WSW9.3 kmh WSW 10.4 mph16.7 kmh 29.73 in1006.8 mb - 0.00 in0.0 mm 0.35 in8.9 mm
05:25 PM 55.6°F13.1°C 52.4°F11.3°C 89% 4.6 mph SW7.4 kmh SW 8.1 mph13.0 kmh 29.73 in1006.8 mb - 0.00 in0.0 mm 0.35 in8.9 mm
05:30 PM 55.5°F13.1°C 52.3°F11.3°C 89% 4.6 mph SW7.4 kmh SW 4.6 mph7.4 kmh 29.73 in1006.8 mb - 0.00 in0.0 mm 0.35 in8.9 mm
05:35 PM 55.3°F12.9°C 52.2°F11.2°C 89% 4.6 mph SW7.4 kmh SW 6.9 mph11.1 kmh 29.73 in1006.8 mb - 0.00 in0.0 mm 0.35 in8.9 mm
05:40 PM 55.1°F12.8°C 52.3°F11.3°C 90% 3.5 mph SW5.6 kmh SW 5.8 mph9.3 kmh 29.73 in1006.8 mb - 0.00 in0.0 mm 0.35 in8.9 mm
05:45 PM 54.9°F12.7°C 52.0°F11.1°C 90% 4.6 mph SW7.4 kmh SW 5.8 mph9.3 kmh 29.73 in1006.8 mb - 0.00 in0.0 mm 0.35 in8.9 mm
05:50 PM 54.7°F12.6°C 51.8°F11.0°C 90% 5.8 mph SW9.3 kmh SW 9.2 mph14.8 kmh 29.74 in1007.1 mb - 0.00 in0.0 mm 0.35 in8.9 mm
05:55 PM 54.7°F12.6°C 51.5°F10.8°C 89% 6.9 mph SW11.1 kmh SW 9.2 mph14.8 kmh 29.74 in1007.1 mb - 0.00 in0.0 mm 0.35 in8.9 mm
06:00 PM 54.6°F12.6°C 51.5°F10.8°C 89% 4.6 mph SW7.4 kmh SW 5.8 mph9.3 kmh 29.74 in1007.1 mb - 0.00 in0.0 mm 0.35 in8.9 mm
06:10 PM 54.5°F12.5°C 51.3°F10.7°C 89% 4.6 mph SW7.4 kmh SW 6.9 mph11.1 kmh 29.74 in1007.1 mb - 0.00 in0.0 mm 0.35 in8.9 mm
06:15 PM 54.5°F12.5°C 51.3°F10.7°C 89% 4.6 mph SW7.4 kmh SW 4.6 mph7.4 kmh 29.74 in1007.1 mb - 0.00 in0.0 mm 0.35 in8.9 mm
06:20 PM 54.5°F12.5°C 51.3°F10.7°C 89% 4.6 mph SW7.4 kmh SW 5.8 mph9.3 kmh 29.74 in1007.1 mb - 0.00 in0.0 mm 0.35 in8.9 mm
06:25 PM 54.4°F12.4°C 51.2°F10.7°C 89% 5.8 mph SW9.3 kmh SW 6.9 mph11.1 kmh 29.74 in1007.1 mb - 0.00 in0.0 mm 0.35 in8.9 mm
06:30 PM 54.3°F12.4°C 51.1°F10.6°C 89% 4.6 mph SW7.4 kmh SW 5.8 mph9.3 kmh 29.75 in1007.5 mb - 0.00 in0.0 mm 0.35 in8.9 mm
06:35 PM 54.2°F12.3°C 51.0°F10.6°C 89% 4.6 mph SW7.4 kmh SW 8.1 mph13.0 kmh 29.75 in1007.5 mb - 0.00 in0.0 mm 0.35 in8.9 mm
06:40 PM 54.0°F12.2°C 50.8°F10.4°C 89% 3.5 mph SW5.6 kmh SW 3.5 mph5.6 kmh 29.75 in1007.5 mb - 0.00 in0.0 mm 0.35 in8.9 mm
06:45 PM 53.9°F12.2°C 51.0°F10.6°C 90% 2.3 mph SW3.7 kmh SW 3.5 mph5.6 kmh 29.75 in1007.5 mb - 0.00 in0.0 mm 0.35 in8.9 mm
06:50 PM 53.5°F11.9°C 50.7°F10.4°C 90% 2.3 mph SW3.7 kmh SW 3.5 mph5.6 kmh 29.75 in1007.5 mb - 0.00 in0.0 mm 0.35 in8.9 mm
06:55 PM 53.2°F11.8°C 50.4°F10.2°C 90% 3.5 mph SW5.6 kmh SW 4.6 mph7.4 kmh 29.75 in1007.5 mb - 0.00 in0.0 mm 0.35 in8.9 mm
07:00 PM 53.0°F11.7°C 50.2°F10.1°C 90% 4.6 mph SW7.4 kmh SW 6.9 mph11.1 kmh 29.75 in1007.5 mb - 0.00 in0.0 mm 0.35 in8.9 mm
07:10 PM 52.9°F11.6°C 50.0°F10.0°C 90% 3.5 mph SW5.6 kmh SW 3.5 mph5.6 kmh 29.75 in1007.5 mb - 0.00 in0.0 mm 0.35 in8.9 mm
07:15 PM 52.7°F11.5°C 49.9°F9.9°C 90% 3.5 mph WSW5.6 kmh WSW 3.5 mph5.6 kmh 29.75 in1007.5 mb - 0.00 in0.0 mm 0.35 in8.9 mm
07:20 PM 52.5°F11.4°C 49.7°F9.8°C 90% 3.5 mph SW5.6 kmh SW 3.5 mph5.6 kmh 29.75 in1007.5 mb - 0.00 in0.0 mm 0.35 in8.9 mm
07:25 PM 52.2°F11.2°C 49.4°F9.7°C 90% 2.3 mph SW3.7 kmh SW 3.5 mph5.6 kmh 29.75 in1007.5 mb - 0.00 in0.0 mm 0.35 in8.9 mm
07:30 PM 52.0°F11.1°C 49.5°F9.7°C 91% 2.3 mph SW3.7 kmh SW 3.5 mph5.6 kmh 29.75 in1007.5 mb - 0.00 in0.0 mm 0.35 in8.9 mm
07:35 PM 51.9°F11.1°C 49.4°F9.7°C 91% 2.3 mph SW3.7 kmh SW 3.5 mph5.6 kmh 29.75 in1007.5 mb - 0.00 in0.0 mm 0.35 in8.9 mm
07:40 PM 51.7°F10.9°C 49.2°F9.6°C 91% 3.5 mph SW5.6 kmh SW 4.6 mph7.4 kmh 29.75 in1007.5 mb - 0.00 in0.0 mm 0.35 in8.9 mm
07:45 PM 51.6°F10.9°C 49.1°F9.5°C 91% 3.5 mph SW5.6 kmh SW 4.6 mph7.4 kmh 29.75 in1007.5 mb - 0.00 in0.0 mm 0.35 in8.9 mm
07:50 PM 51.4°F10.8°C 48.8°F9.3°C 91% 2.3 mph SW3.7 kmh SW 3.5 mph5.6 kmh 29.74 in1007.1 mb - 0.00 in0.0 mm 0.35 in8.9 mm
07:55 PM 51.4°F10.8°C 48.9°F9.4°C 91% 2.3 mph SW3.7 kmh SW 3.5 mph5.6 kmh 29.74 in1007.1 mb - 0.00 in0.0 mm 0.35 in8.9 mm
08:00 PM 51.3°F10.7°C 48.8°F9.3°C 91% 1.2 mph SW1.9 kmh SW 2.3 mph3.7 kmh 29.74 in1007.1 mb - 0.00 in0.0 mm 0.35 in8.9 mm
08:10 PM 51.0°F10.6°C 48.8°F9.3°C 92% 1.2 mph SW1.9 kmh SW 2.3 mph3.7 kmh 29.74 in1007.1 mb - 0.00 in0.0 mm 0.35 in8.9 mm
08:15 PM 51.1°F10.6°C 48.9°F9.4°C 92% 1.2 mph SW1.9 kmh SW 2.3 mph3.7 kmh 29.74 in1007.1 mb - 0.00 in0.0 mm 0.35 in8.9 mm
08:20 PM 50.9°F10.5°C 48.7°F9.3°C 92% 2.3 mph SW3.7 kmh SW 2.3 mph3.7 kmh 29.74 in1007.1 mb - 0.00 in0.0 mm 0.35 in8.9 mm
08:25 PM 50.8°F10.4°C 48.6°F9.2°C 92% 1.2 mph SW1.9 kmh SW 3.5 mph5.6 kmh 29.74 in1007.1 mb - 0.00 in0.0 mm 0.35 in8.9 mm
08:30 PM 50.7°F10.4°C 48.5°F9.2°C 92% 1.2 mph SW1.9 kmh SW 2.3 mph3.7 kmh 29.74 in1007.1 mb - 0.00 in0.0 mm 0.35 in8.9 mm
08:35 PM 50.4°F10.2°C 48.2°F9.0°C 92% 1.2 mph SW1.9 kmh SW 2.3 mph3.7 kmh 29.73 in1006.8 mb - 0.00 in0.0 mm 0.35 in8.9 mm
08:40 PM 50.4°F10.2°C 48.2°F9.0°C 92% 1.2 mph S1.9 kmh S 2.3 mph3.7 kmh 29.74 in1007.1 mb - 0.00 in0.0 mm 0.35 in8.9 mm
08:45 PM 50.4°F10.2°C 48.2°F9.0°C 92% 1.2 mph S1.9 kmh S 2.3 mph3.7 kmh 29.74 in1007.1 mb - 0.00 in0.0 mm 0.35 in8.9 mm
08:50 PM 50.4°F10.2°C 48.2°F9.0°C 92% 2.3 mph S3.7 kmh S 3.5 mph5.6 kmh 29.74 in1007.1 mb - 0.00 in0.0 mm 0.35 in8.9 mm
08:55 PM 50.4°F10.2°C 48.1°F8.9°C 92% 2.3 mph S3.7 kmh S 3.5 mph5.6 kmh 29.74 in1007.1 mb - 0.00 in0.0 mm 0.35 in8.9 mm
09:00 PM 50.2°F10.1°C 48.0°F8.9°C 92% 1.2 mph S1.9 kmh S 3.5 mph5.6 kmh 29.74 in1007.1 mb - 0.00 in0.0 mm 0.35 in8.9 mm
09:10 PM 49.9°F9.9°C 48.0°F8.9°C 93% 1.2 mph SSE1.9 kmh SSE 1.2 mph1.9 kmh 29.74 in1007.1 mb - 0.00 in0.0 mm 0.35 in8.9 mm
09:15 PM 49.8°F9.9°C 47.6°F8.7°C 92% 1.2 mph SSE1.9 kmh SSE 2.3 mph3.7 kmh 29.74 in1007.1 mb - 0.00 in0.0 mm 0.35 in8.9 mm
09:20 PM 49.7°F9.8°C 47.8°F8.8°C 93% 1.2 mph SSE1.9 kmh SSE 2.3 mph3.7 kmh 29.74 in1007.1 mb - 0.00 in0.0 mm 0.35 in8.9 mm
09:25 PM 49.7°F9.8°C 47.7°F8.7°C 93% 1.2 mph SSE1.9 kmh SSE 2.3 mph3.7 kmh 29.74 in1007.1 mb - 0.00 in0.0 mm 0.35 in8.9 mm
09:30 PM 49.6°F9.8°C 47.7°F8.7°C 93% 1.2 mph SSE1.9 kmh SSE 2.3 mph3.7 kmh 29.74 in1007.1 mb - 0.00 in0.0 mm 0.35 in8.9 mm
09:35 PM 49.8°F9.9°C 47.9°F8.8°C 93% 1.2 mph SSE1.9 kmh SSE 2.3 mph3.7 kmh 29.74 in1007.1 mb - 0.00 in0.0 mm 0.35 in8.9 mm
09:40 PM 49.6°F9.8°C 47.7°F8.7°C 93% 1.2 mph SSE1.9 kmh SSE 2.3 mph3.7 kmh 29.74 in1007.1 mb - 0.00 in0.0 mm 0.35 in8.9 mm
09:45 PM 49.5°F9.7°C 47.6°F8.7°C 93% 1.2 mph SE1.9 kmh SE 2.3 mph3.7 kmh 29.74 in1007.1 mb - 0.00 in0.0 mm 0.35 in8.9 mm
09:50 PM 49.2°F9.6°C 47.0°F8.3°C 92% 1.2 mph SE1.9 kmh SE 2.3 mph3.7 kmh 29.74 in1007.1 mb - 0.00 in0.0 mm 0.35 in8.9 mm
09:55 PM 49.4°F9.7°C 47.5°F8.6°C 93% 1.2 mph SE1.9 kmh SE 2.3 mph3.7 kmh 29.74 in1007.1 mb - 0.00 in0.0 mm 0.35 in8.9 mm
10:00 PM 49.7°F9.8°C 47.7°F8.7°C 93% 1.2 mph SE1.9 kmh SE 3.5 mph5.6 kmh 29.74 in1007.1 mb - 0.00 in0.0 mm 0.35 in8.9 mm
10:10 PM 49.8°F9.9°C 47.8°F8.8°C 93% 1.2 mph SE1.9 kmh SE 2.3 mph3.7 kmh 29.74 in1007.1 mb - 0.00 in0.0 mm 0.35 in8.9 mm
10:15 PM 49.7°F9.8°C 47.8°F8.8°C 93% 1.2 mph SE1.9 kmh SE 3.5 mph5.6 kmh 29.73 in1006.8 mb - 0.00 in0.0 mm 0.35 in8.9 mm
10:20 PM 49.8°F9.9°C 47.8°F8.8°C 93% 2.3 mph SE3.7 kmh SE 3.5 mph5.6 kmh 29.73 in1006.8 mb - 0.00 in0.0 mm 0.35 in8.9 mm
10:25 PM 49.7°F9.8°C 47.8°F8.8°C 93% 2.3 mph SE3.7 kmh SE 3.5 mph5.6 kmh 29.73 in1006.8 mb - 0.00 in0.0 mm 0.35 in8.9 mm
10:30 PM 49.7°F9.8°C 47.8°F8.8°C 93% 1.2 mph SE1.9 kmh SE 2.3 mph3.7 kmh 29.73 in1006.8 mb - 0.00 in0.0 mm 0.35 in8.9 mm
10:35 PM 49.6°F9.8°C 47.7°F8.7°C 93% 1.2 mph SE1.9 kmh SE 3.5 mph5.6 kmh 29.73 in1006.8 mb - 0.00 in0.0 mm 0.35 in8.9 mm
10:40 PM 49.5°F9.7°C 47.5°F8.6°C 93% 1.2 mph SE1.9 kmh SE 2.3 mph3.7 kmh 29.73 in1006.8 mb - 0.00 in0.0 mm 0.35 in8.9 mm
10:45 PM 49.4°F9.7°C 47.4°F8.6°C 93% 1.2 mph SE1.9 kmh SE 3.5 mph5.6 kmh 29.73 in1006.8 mb - 0.00 in0.0 mm 0.35 in8.9 mm
10:50 PM 49.4°F9.7°C 47.5°F8.6°C 93% 1.2 mph SE1.9 kmh SE 1.2 mph1.9 kmh 29.73 in1006.8 mb - 0.00 in0.0 mm 0.35 in8.9 mm
10:55 PM 49.1°F9.5°C 47.2°F8.4°C 93% 1.2 mph SE1.9 kmh SE 2.3 mph3.7 kmh 29.73 in1006.8 mb - 0.00 in0.0 mm 0.35 in8.9 mm
11:00 PM 48.9°F9.4°C 47.0°F8.3°C 93% 1.2 mph SE1.9 kmh SE 1.2 mph1.9 kmh 29.73 in1006.8 mb - 0.00 in0.0 mm 4.05 in102.9 mm
11:10 PM 48.9°F9.4°C 47.0°F8.3°C 93% Calm Calm -- 29.73 in1006.8 mb - 0.00 in0.0 mm 4.05 in102.9 mm
11:15 PM 49.0°F9.4°C 47.1°F8.4°C 93% 1.2 mph SE1.9 kmh SE 2.3 mph3.7 kmh 29.73 in1006.8 mb - 0.00 in0.0 mm 4.05 in102.9 mm
11:20 PM 49.2°F9.6°C 47.3°F8.5°C 93% 1.2 mph SE1.9 kmh SE 2.3 mph3.7 kmh 29.73 in1006.8 mb - 0.00 in0.0 mm 4.05 in102.9 mm
11:25 PM 49.4°F9.7°C 47.4°F8.6°C 93% 1.2 mph SE1.9 kmh SE 2.3 mph3.7 kmh 29.73 in1006.8 mb - 0.00 in0.0 mm 4.05 in102.9 mm
11:30 PM 49.6°F9.8°C 47.7°F8.7°C 93% 1.2 mph S1.9 kmh S 2.3 mph3.7 kmh 29.73 in1006.8 mb - 0.00 in0.0 mm 4.05 in102.9 mm
11:35 PM 49.8°F9.9°C 47.9°F8.8°C 93% 1.2 mph SSE1.9 kmh SSE 2.3 mph3.7 kmh 29.73 in1006.8 mb - 0.00 in0.0 mm 4.05 in102.9 mm
11:40 PM 50.0°F10.0°C 48.1°F8.9°C 93% 1.2 mph SE1.9 kmh SE 2.3 mph3.7 kmh 29.73 in1006.8 mb - 0.00 in0.0 mm 4.05 in102.9 mm
11:45 PM 50.2°F10.1°C 48.3°F9.1°C 93% 1.2 mph SE1.9 kmh SE 4.6 mph7.4 kmh 29.72 in1006.4 mb - 0.00 in0.0 mm 4.05 in102.9 mm
11:50 PM 50.3°F10.2°C 48.4°F9.1°C 93% 2.3 mph SE3.7 kmh SE 4.6 mph7.4 kmh 29.72 in1006.4 mb - 0.00 in0.0 mm 4.05 in102.9 mm
11:55 PM 50.4°F10.2°C 48.5°F9.2°C 93% 2.3 mph SE3.7 kmh SE 4.6 mph7.4 kmh 29.72 in1006.4 mb - 0.00 in0.0 mm 4.05 in102.9 mm